Time;durP1;ratioP1;P1;durP2;ratioP2;P2;SDS_P1;SDS_P2;PMS_P1;PMS_P2;Temp;Humidity;BMP_temperature;BMP_pressure;BME280_temperature;BME280_humidity;BME280_pressure;Samples;Min_cycle;Max_cycle;Signal;HPM_P1;HPM_P2
2022/06/02 00:01:06;;;;;;;;;;;15.80;63.10;;;;;;5062868;28;19970;-60
2022/06/02 00:03:38;;;;;;;;;;;15.80;63.20;;;;;;5070844;28;19912;-60
2022/06/02 00:06:15;;;;;;;;;;;15.80;63.10;;;;;;5071250;28;19920;-61
2022/06/02 00:08:40;;;;;;;;;;;15.70;63.20;;;;;;5070590;28;20011;-61
2022/06/02 00:11:18;;;;;;;;;;;15.70;63.40;;;;;;5066881;28;20058;-60
2022/06/02 00:13:53;;;;;;;;;;;15.70;63.70;;;;;;5071008;28;20382;-60
2022/06/02 00:16:29;;;;;;;;;;;15.70;63.60;;;;;;5070821;28;20664;-61
2022/06/02 00:18:58;;;;;;;;;;;15.60;63.60;;;;;;5070763;28;19938;-60
2022/06/02 00:21:33;;;;;;;;;;;15.60;64.00;;;;;;5068830;28;19916;-60
2022/06/02 00:24:06;;;;;;;;;;;15.60;64.20;;;;;;5070275;28;19999;-60
2022/06/02 00:26:50;;;;;;;;;;;15.50;64.20;;;;;;5063997;28;19915;-60
2022/06/02 00:29:33;;;;;;;;;;;15.50;63.80;;;;;;5070880;28;19931;-61
2022/06/02 00:32:06;;;;;;;;;;;15.50;64.50;;;;;;5071204;28;20019;-60
2022/06/02 00:34:47;;;;;;;;;;;15.50;64.30;;;;;;5070019;28;19909;-60
2022/06/02 00:37:15;;;;;;;;;;;15.50;64.30;;;;;;5069361;28;19955;-60
2022/06/02 00:39:41;;;;;;;;;;;15.50;64.70;;;;;;5063245;28;19908;-61
2022/06/02 00:42:06;;;;;;;;;;;15.50;64.60;;;;;;5068085;28;20258;-61
2022/06/02 00:44:44;;;;;;;;;;;15.40;64.30;;;;;;5070101;28;19947;-61
2022/06/02 00:47:19;;;;;;;;;;;15.40;64.80;;;;;;5069914;28;19912;-60
2022/06/02 00:49:54;;;;;;;;;;;15.40;65.50;;;;;;5070367;28;19963;-61
2022/06/02 00:52:28;;;;;;;;;;;15.40;65.00;;;;;;5069575;28;19978;-61
2022/06/02 00:58:01;;;;;;;;;;;15.40;65.50;;;;;;5070400;28;20396;-61
2022/06/02 01:00:41;;;;;;;;;;;15.30;65.50;;;;;;5070376;28;20116;-60
2022/06/02 01:03:18;;;;;;;;;;;15.40;65.40;;;;;;5069984;28;19915;-61
2022/06/02 01:06:02;;;;;;;;;;;15.30;65.60;;;;;;5068699;28;19920;-61
2022/06/02 01:08:37;;;;;;;;;;;15.30;66.00;;;;;;5066783;28;20454;-61
2022/06/02 01:11:08;;;;;;;;;;;15.30;65.80;;;;;;5069760;28;19920;-61
2022/06/02 01:13:42;;;;;;;;;;;15.30;66.10;;;;;;5069356;28;19913;-61
2022/06/02 01:16:18;;;;;;;;;;;15.30;65.70;;;;;;5069997;28;19962;-61
2022/06/02 01:19:01;;;;;;;;;;;15.30;66.10;;;;;;5063373;28;20437;-61
2022/06/02 01:21:42;;;;;;;;;;;15.30;66.10;;;;;;5069239;28;20008;-62
2022/06/02 01:24:27;;;;;;;;;;;15.20;67.00;;;;;;5069880;28;19939;-61
2022/06/02 01:26:55;;;;;;;;;;;15.20;67.30;;;;;;5069482;28;19956;-61
2022/06/02 01:29:21;;;;;;;;;;;15.20;67.20;;;;;;5069553;28;19909;-62
2022/06/02 01:31:50;;;;;;;;;;;15.20;66.70;;;;;;5070367;28;19920;-61
2022/06/02 01:34:18;;;;;;;;;;;15.10;66.90;;;;;;5069444;28;19912;-60
2022/06/02 01:36:47;;;;;;;;;;;15.20;67.30;;;;;;5069071;28;19913;-61
2022/06/02 01:39:20;;;;;;;;;;;15.10;66.90;;;;;;5070157;28;19916;-61
2022/06/02 01:41:57;;;;;;;;;;;15.10;67.20;;;;;;5069553;28;20443;-60
2022/06/02 01:44:26;;;;;;;;;;;15.10;67.00;;;;;;5069607;28;19908;-61
2022/06/02 01:46:57;;;;;;;;;;;15.10;67.50;;;;;;5070507;28;19912;-60
2022/06/02 01:49:23;;;;;;;;;;;15.00;67.90;;;;;;5069193;28;19909;-60
2022/06/02 01:51:48;;;;;;;;;;;15.00;67.60;;;;;;5068960;28;19912;-62
2022/06/02 01:59:57;;;;;;;;;;;14.90;68.20;;;;;;5159580;23;19937;-60
2022/06/02 02:02:35;;;;;;;;;;;14.90;68.10;;;;;;5030020;28;19936;-63
2022/06/02 02:05:06;;;;;;;;;;;14.90;68.30;;;;;;5053101;28;20534;-61
2022/06/02 02:07:46;;;;;;;;;;;14.80;68.30;;;;;;5050689;28;20015;-61
2022/06/02 02:10:23;;;;;;;;;;;14.80;68.40;;;;;;5050668;28;19921;-63
2022/06/02 02:12:51;;;;;;;;;;;14.80;68.50;;;;;;5050450;28;20007;-62
2022/06/02 02:15:35;;;;;;;;;;;14.80;68.80;;;;;;5051444;28;19917;-64
2022/06/02 02:18:12;;;;;;;;;;;14.80;68.60;;;;;;5050202;28;20024;-62
2022/06/02 02:20:40;;;;;;;;;;;14.70;68.70;;;;;;5047774;28;19960;-62
2022/06/02 02:23:18;;;;;;;;;;;14.70;68.70;;;;;;5053541;28;20458;-63
2022/06/02 02:25:58;;;;;;;;;;;14.70;68.80;;;;;;5052306;28;19919;-64
2022/06/02 02:28:47;;;;;;;;;;;14.70;69.70;;;;;;5052943;28;19925;-64
2022/06/02 02:31:33;;;;;;;;;;;14.60;69.90;;;;;;5051946;28;19928;-62
2022/06/02 02:34:12;;;;;;;;;;;14.60;69.60;;;;;;5051933;28;19920;-63
2022/06/02 02:36:56;;;;;;;;;;;14.60;69.50;;;;;;5052368;28;19917;-62
2022/06/02 02:39:40;;;;;;;;;;;14.60;69.40;;;;;;5052199;28;19912;-62
2022/06/02 02:42:11;;;;;;;;;;;14.50;69.40;;;;;;5053022;28;19927;-63
2022/06/02 02:44:40;;;;;;;;;;;14.50;69.80;;;;;;5052154;28;19913;-61
2022/06/02 02:47:15;;;;;;;;;;;14.50;70.00;;;;;;5052944;28;19916;-61
2022/06/02 02:49:56;;;;;;;;;;;14.50;69.90;;;;;;5052475;28;19916;-62
2022/06/02 02:52:26;;;;;;;;;;;14.50;70.00;;;;;;5051753;28;19959;-63
2022/06/02 02:55:01;;;;;;;;;;;14.50;69.90;;;;;;5052147;28;19919;-63
2022/06/02 02:57:33;;;;;;;;;;;14.50;69.90;;;;;;5034317;28;19917;-61
2022/06/02 03:00:17;;;;;;;;;;;14.40;70.10;;;;;;5051141;28;19925;-59
2022/06/02 03:03:02;;;;;;;;;;;14.50;70.10;;;;;;5051923;28;19924;-62
2022/06/02 03:05:43;;;;;;;;;;;14.40;70.20;;;;;;5052405;28;19913;-62
2022/06/02 03:08:13;;;;;;;;;;;14.40;70.40;;;;;;5053335;28;20090;-62
2022/06/02 03:10:40;;;;;;;;;;;14.40;70.20;;;;;;5051863;28;20441;-63
2022/06/02 03:13:28;;;;;;;;;;;14.40;70.40;;;;;;5051234;28;19936;-62
2022/06/02 03:16:07;;;;;;;;;;;14.40;70.40;;;;;;5051392;28;20643;-62
2022/06/02 03:18:52;;;;;;;;;;;14.40;70.60;;;;;;5051344;28;19913;-61
2022/06/02 03:21:31;;;;;;;;;;;14.40;70.50;;;;;;5051980;28;20599;-62
2022/06/02 03:24:06;;;;;;;;;;;14.30;70.50;;;;;;5051701;28;19992;-62
2022/06/02 03:27:10;;;;;;;;;;;14.30;70.60;;;;;;5051391;28;19921;-62
2022/06/02 03:29:46;;;;;;;;;;;14.30;70.80;;;;;;4970188;28;19914;-62
2022/06/02 03:32:34;;;;;;;;;;;14.30;70.60;;;;;;4971219;28;20503;-63
2022/06/02 03:35:05;;;;;;;;;;;14.30;71.00;;;;;;4971414;28;19917;-61
2022/06/02 03:37:31;;;;;;;;;;;14.30;70.80;;;;;;4970302;28;19933;-62
2022/06/02 03:40:01;;;;;;;;;;;14.30;71.00;;;;;;4970859;28;20486;-61
2022/06/02 03:42:33;;;;;;;;;;;14.20;71.10;;;;;;4970430;28;19961;-61
2022/06/02 03:44:58;;;;;;;;;;;14.20;71.00;;;;;;4969919;28;20426;-64
2022/06/02 03:47:43;;;;;;;;;;;14.20;70.80;;;;;;4970034;28;19910;-61
2022/06/02 03:50:09;;;;;;;;;;;14.20;70.90;;;;;;4970592;28;19965;-63
2022/06/02 03:52:43;;;;;;;;;;;14.20;71.20;;;;;;4969513;28;20022;-61
2022/06/02 03:55:18;;;;;;;;;;;14.20;71.30;;;;;;4969421;28;20402;-63
2022/06/02 03:57:46;;;;;;;;;;;14.20;71.30;;;;;;4969106;28;19968;-63
2022/06/02 04:00:21;;;;;;;;;;;14.10;72.30;;;;;;4987246;28;19926;-62
2022/06/02 04:02:51;;;;;;;;;;;14.10;71.50;;;;;;5011483;28;20271;-62
2022/06/02 04:05:20;;;;;;;;;;;14.10;71.70;;;;;;5011033;28;20586;-62
2022/06/02 04:07:51;;;;;;;;;;;14.10;71.70;;;;;;5011763;28;20044;-62
2022/06/02 04:10:36;;;;;;;;;;;14.10;71.80;;;;;;5010405;28;19917;-62
2022/06/02 04:13:37;;;;;;;;;;;14.10;71.80;;;;;;5010224;28;19960;-63
2022/06/02 04:16:21;;;;;;;;;;;14.10;71.60;;;;;;5007138;28;19914;-63
2022/06/02 04:20:34;;;;;;;;;;;14.10;71.70;;;;;;5010481;28;19920;-61
2022/06/02 04:22:05;;;;;;;;;;;14.10;71.90;;;;;;5010851;28;19917;-62
2022/06/02 04:24:38;;;;;;;;;;;14.10;71.70;;;;;;5009608;28;19920;-61
2022/06/02 04:27:06;;;;;;;;;;;14.20;71.60;;;;;;5009711;28;19917;-61
2022/06/02 04:29:47;;;;;;;;;;;14.20;71.70;;;;;;5010408;28;19928;-62
2022/06/02 04:32:42;;;;;;;;;;;14.20;71.70;;;;;;5011621;28;19920;-63
2022/06/02 04:35:26;;;;;;;;;;;14.20;71.60;;;;;;5010843;28;19913;-62
2022/06/02 04:37:51;;;;;;;;;;;14.30;71.80;;;;;;5011543;28;19917;-62
2022/06/02 04:40:33;;;;;;;;;;;14.30;71.90;;;;;;5010322;28;20279;-62
2022/06/02 04:43:07;;;;;;;;;;;14.40;71.70;;;;;;5005473;28;20020;-63
2022/06/02 04:45:45;;;;;;;;;;;14.40;71.80;;;;;;5010262;28;19913;-63
2022/06/02 04:48:40;;;;;;;;;;;14.40;71.80;;;;;;5010374;28;19936;-63
2022/06/02 04:51:15;;;;;;;;;;;14.50;71.80;;;;;;5009259;28;19917;-64
2022/06/02 04:53:51;;;;;;;;;;;14.60;72.10;;;;;;5010084;28;19914;-64
2022/06/02 04:56:19;;;;;;;;;;;14.60;71.70;;;;;;5010004;28;19910;-62
2022/06/02 04:58:44;;;;;;;;;;;14.60;71.90;;;;;;5015101;28;19921;-62
2022/06/02 05:01:29;;;;;;;;;;;14.70;71.90;;;;;;5049447;28;19925;-63
2022/06/02 05:04:16;;;;;;;;;;;14.70;71.80;;;;;;5049455;28;19913;-64
2022/06/02 05:06:48;;;;;;;;;;;14.80;72.60;;;;;;5049453;28;19920;-63
2022/06/02 05:09:19;;;;;;;;;;;14.80;71.80;;;;;;5049704;28;20074;-61
2022/06/02 05:12:03;;;;;;;;;;;14.80;71.90;;;;;;5049050;28;19924;-61
2022/06/02 05:14:31;;;;;;;;;;;14.80;71.90;;;;;;5049159;28;19916;-63
2022/06/02 05:17:04;;;;;;;;;;;14.80;71.70;;;;;;5032099;28;19931;-63
2022/06/02 05:19:30;;;;;;;;;;;14.80;72.20;;;;;;5049324;28;20018;-61
2022/06/02 05:21:59;;;;;;;;;;;14.90;71.90;;;;;;5049253;28;20427;-62
2022/06/02 05:24:34;;;;;;;;;;;14.90;72.10;;;;;;5048735;28;19913;-62
2022/06/02 05:27:05;;;;;;;;;;;14.80;71.80;;;;;;5049350;28;19939;-61
2022/06/02 05:29:37;;;;;;;;;;;14.80;72.20;;;;;;5049578;28;19916;-61
2022/06/02 05:32:14;;;;;;;;;;;14.90;72.00;;;;;;5050489;28;19919;-62
2022/06/02 05:34:40;;;;;;;;;;;14.80;71.70;;;;;;5049992;28;20027;-61
2022/06/02 05:37:17;;;;;;;;;;;14.80;71.80;;;;;;5052092;28;20363;-62
2022/06/02 05:39:49;;;;;;;;;;;15.00;72.00;;;;;;5053153;28;19913;-66
2022/06/02 05:42:44;;;;;;;;;;;14.90;71.50;;;;;;5053510;28;19917;-64
2022/06/02 05:45:24;;;;;;;;;;;15.00;71.90;;;;;;5053507;28;19923;-64
2022/06/02 05:48:15;;;;;;;;;;;15.00;71.80;;;;;;5053400;28;19935;-63
2022/06/02 05:50:59;;;;;;;;;;;15.10;72.10;;;;;;5053138;28;19921;-63
2022/06/02 05:53:30;;;;;;;;;;;15.10;72.00;;;;;;5053562;28;20367;-64
2022/06/02 05:56:03;;;;;;;;;;;15.10;71.90;;;;;;5052790;28;19967;-64
2022/06/02 05:58:47;;;;;;;;;;;15.10;71.90;;;;;;5053144;28;20011;-64
2022/06/02 06:01:30;;;;;;;;;;;15.10;72.10;;;;;;5052849;28;19920;-64
2022/06/02 06:03:56;;;;;;;;;;;15.10;72.00;;;;;;5052398;28;19913;-61
2022/06/02 06:06:28;;;;;;;;;;;15.10;72.10;;;;;;5052835;28;19924;-67
2022/06/02 06:09:06;;;;;;;;;;;15.10;72.20;;;;;;5051868;28;19921;-62
2022/06/02 06:11:51;;;;;;;;;;;15.10;72.10;;;;;;5052986;28;19940;-69
2022/06/02 06:14:29;;;;;;;;;;;15.00;72.10;;;;;;5052552;28;19937;-65
2022/06/02 06:16:54;;;;;;;;;;;15.10;72.50;;;;;;5053925;28;20302;-64
2022/06/02 06:19:28;;;;;;;;;;;15.00;72.50;;;;;;5051959;28;19913;-64
2022/06/02 06:22:13;;;;;;;;;;;15.10;72.50;;;;;;5052671;28;20375;-65
2022/06/02 06:24:57;;;;;;;;;;;15.10;72.80;;;;;;5052727;28;19913;-64
2022/06/02 06:27:32;;;;;;;;;;;15.10;72.90;;;;;;5052280;28;19971;-65
2022/06/02 06:30:04;;;;;;;;;;;15.10;72.70;;;;;;5052578;28;20003;-65
2022/06/02 06:32:38;;;;;;;;;;;15.20;72.80;;;;;;5044576;28;19924;-64
2022/06/02 06:35:07;;;;;;;;;;;15.20;72.80;;;;;;5053076;28;20002;-63
2022/06/02 06:37:45;;;;;;;;;;;15.20;72.60;;;;;;5045458;28;20409;-63
2022/06/02 06:40:10;;;;;;;;;;;15.20;72.60;;;;;;5047524;28;19917;-64
2022/06/02 06:42:49;;;;;;;;;;;15.20;72.30;;;;;;5045332;28;19958;-63
2022/06/02 06:45:35;;;;;;;;;;;15.30;72.60;;;;;;5050798;28;20011;-64
2022/06/02 06:48:00;;;;;;;;;;;15.30;72.70;;;;;;5047656;28;20367;-63
2022/06/02 06:50:39;;;;;;;;;;;15.40;72.60;;;;;;5050559;28;19928;-64
2022/06/02 06:53:17;;;;;;;;;;;15.40;72.60;;;;;;5050787;28;19952;-64
2022/06/02 06:55:50;;;;;;;;;;;15.50;72.60;;;;;;5050379;28;19948;-64
2022/06/02 06:58:35;;;;;;;;;;;15.50;72.60;;;;;;5048742;28;19924;-61
2022/06/02 07:01:03;;;;;;;;;;;15.50;72.60;;;;;;5048840;28;20337;-61
2022/06/02 07:03:50;;;;;;;;;;;15.50;72.70;;;;;;5049958;28;19912;-61
2022/06/02 07:06:27;;;;;;;;;;;15.60;72.60;;;;;;5047583;28;19923;-60
2022/06/02 07:09:01;;;;;;;;;;;15.60;72.40;;;;;;5049279;28;19913;-60
2022/06/02 07:14:42;;;;;;;;;;;15.70;72.40;;;;;;4979761;28;19929;-61
2022/06/02 07:17:34;;;;;;;;;;;15.70;72.20;;;;;;4978164;28;19917;-61
2022/06/02 07:20:00;;;;;;;;;;;15.70;72.20;;;;;;4983800;28;19918;-60
2022/06/02 07:22:39;;;;;;;;;;;15.80;72.20;;;;;;4977889;28;20901;-62
2022/06/02 07:25:04;;;;;;;;;;;15.80;72.00;;;;;;4980370;28;20362;-60
2022/06/02 07:27:48;;;;;;;;;;;15.90;72.00;;;;;;4979192;28;20372;-60
2022/06/02 07:30:14;;;;;;;;;;;16.00;71.90;;;;;;4976027;28;19922;-61
2022/06/02 07:32:48;;;;;;;;;;;16.10;71.70;;;;;;4979228;28;20022;-62
2022/06/02 07:35:34;;;;;;;;;;;16.10;71.50;;;;;;4978484;28;20392;-62
2022/06/02 07:38:11;;;;;;;;;;;16.10;71.60;;;;;;4981673;28;19918;-61
2022/06/02 07:40:45;;;;;;;;;;;16.20;71.50;;;;;;4979748;28;19942;-60
2022/06/02 07:43:33;;;;;;;;;;;16.20;71.60;;;;;;4978464;28;20014;-61
2022/06/02 07:46:09;;;;;;;;;;;16.30;71.40;;;;;;4977178;28;19918;-62
2022/06/02 07:48:37;;;;;;;;;;;16.40;71.20;;;;;;5009761;28;19936;-61
2022/06/02 07:51:22;;;;;;;;;;;16.40;71.20;;;;;;5048598;28;20467;-61
2022/06/02 07:54:01;;;;;;;;;;;16.50;71.10;;;;;;5047082;28;19921;-61
2022/06/02 07:56:44;;;;;;;;;;;16.60;70.80;;;;;;5049049;28;20019;-62
2022/06/02 07:59:25;;;;;;;;;;;16.70;70.70;;;;;;5048965;28;19925;-60
2022/06/02 08:01:59;;;;;;;;;;;16.70;70.70;;;;;;5050512;28;19989;-61
2022/06/02 08:04:36;;;;;;;;;;;16.80;70.40;;;;;;5046291;28;19967;-61
2022/06/02 08:07:06;;;;;;;;;;;16.90;70.30;;;;;;5048192;28;19913;-62
2022/06/02 08:09:39;;;;;;;;;;;17.00;70.30;;;;;;5049391;28;20035;-60
2022/06/02 08:12:20;;;;;;;;;;;17.10;70.10;;;;;;5051038;28;19925;-61
2022/06/02 08:14:48;;;;;;;;;;;17.20;69.70;;;;;;5045519;28;20276;-62
2022/06/02 08:17:21;;;;;;;;;;;17.30;69.60;;;;;;5049407;28;19913;-63
2022/06/02 08:19:53;;;;;;;;;;;17.40;68.90;;;;;;5047768;28;19920;-63
2022/06/02 08:22:23;;;;;;;;;;;17.40;69.40;;;;;;5048821;28;20051;-63
2022/06/02 08:25:07;;;;;;;;;;;17.60;69.00;;;;;;5048190;28;19913;-62
2022/06/02 08:27:39;;;;;;;;;;;17.70;69.20;;;;;;5048521;28;19917;-61
2022/06/02 08:30:08;;;;;;;;;;;17.90;68.00;;;;;;5048077;28;19990;-61
2022/06/02 08:32:43;;;;;;;;;;;18.10;68.30;;;;;;5047381;28;19921;-60
2022/06/02 08:35:11;;;;;;;;;;;18.20;67.60;;;;;;5050221;28;19917;-62
2022/06/02 08:37:47;;;;;;;;;;;18.30;68.10;;;;;;5031307;28;19982;-61
2022/06/02 08:40:41;;;;;;;;;;;18.40;67.80;;;;;;5048527;28;20387;-61
2022/06/02 08:43:09;;;;;;;;;;;18.60;67.60;;;;;;5047851;28;19962;-61
2022/06/02 08:45:46;;;;;;;;;;;18.80;67.70;;;;;;5048508;28;19958;-61
2022/06/02 08:48:14;;;;;;;;;;;18.90;66.80;;;;;;5050432;28;19923;-59
2022/06/02 08:50:42;;;;;;;;;;;19.00;66.90;;;;;;5048591;28;19946;-62
2022/06/02 08:53:26;;;;;;;;;;;19.10;66.80;;;;;;5048945;28;19920;-59
2022/06/02 08:56:10;;;;;;;;;;;19.20;67.10;;;;;;5048377;28;19924;-61
2022/06/02 08:59:07;;;;;;;;;;;19.20;65.60;;;;;;5047270;28;19975;-61
2022/06/02 09:01:51;;;;;;;;;;;19.20;65.10;;;;;;5046761;28;19920;-61
2022/06/02 09:04:16;;;;;;;;;;;19.10;64.90;;;;;;5047077;28;20017;-61
2022/06/02 09:06:54;;;;;;;;;;;19.10;65.00;;;;;;5047768;28;20051;-60
2022/06/02 09:09:28;;;;;;;;;;;19.00;64.40;;;;;;5047100;28;20386;-61
2022/06/02 09:12:13;;;;;;;;;;;19.00;64.90;;;;;;5048304;28;20272;-60
2022/06/02 09:14:50;;;;;;;;;;;19.00;65.30;;;;;;5047939;28;19956;-61
2022/06/02 09:17:31;;;;;;;;;;;19.10;65.30;;;;;;5046882;28;19920;-61
2022/06/02 09:20:09;;;;;;;;;;;19.20;64.90;;;;;;5048786;28;19978;-60
2022/06/02 09:22:35;;;;;;;;;;;19.20;65.00;;;;;;5048113;28;19913;-61
2022/06/02 09:25:13;;;;;;;;;;;19.30;64.40;;;;;;5048247;28;19920;-61
2022/06/02 09:27:57;;;;;;;;;;;19.20;64.30;;;;;;5048470;28;19913;-60
2022/06/02 09:30:31;;;;;;;;;;;19.20;64.40;;;;;;5048142;28;19944;-60
2022/06/02 09:33:33;;;;;;;;;;;19.20;65.20;;;;;;5049364;28;22212;-60
2022/06/02 09:35:51;;;;;;;;;;;19.30;64.50;;;;;;5046556;28;20401;-59
2022/06/02 09:38:32;;;;;;;;;;;19.30;64.80;;;;;;5048075;28;20370;-60
2022/06/02 09:41:10;;;;;;;;;;;19.30;64.80;;;;;;5050604;28;20000;-60
2022/06/02 09:43:36;;;;;;;;;;;19.30;63.90;;;;;;5046829;28;19919;-59
2022/06/02 09:46:40;;;;;;;;;;;19.30;64.00;;;;;;5046834;28;20000;-60
2022/06/02 09:49:24;;;;;;;;;;;19.30;64.50;;;;;;5004562;28;19921;-61
2022/06/02 09:52:02;;;;;;;;;;;19.30;64.30;;;;;;5004618;28;20411;-59
2022/06/02 09:54:41;;;;;;;;;;;19.30;64.30;;;;;;5005808;28;19976;-60
2022/06/02 10:00:12;;;;;;;;;;;19.30;64.20;;;;;;5009098;28;19933;-61
2022/06/02 10:02:45;;;;;;;;;;;19.40;64.60;;;;;;5006356;28;19974;-60
2022/06/02 10:05:46;;;;;;;;;;;19.50;64.80;;;;;;5006593;28;19945;-61
2022/06/02 10:08:38;;;;;;;;;;;19.50;64.10;;;;;;4986134;28;19926;-61
2022/06/02 10:11:22;;;;;;;;;;;19.50;63.60;;;;;;4982427;28;19972;-60
2022/06/02 10:14:06;;;;;;;;;;;19.60;64.10;;;;;;4986631;28;19949;-62
2022/06/02 10:16:32;;;;;;;;;;;19.60;63.40;;;;;;4985351;28;19917;-59
2022/06/02 10:19:16;;;;;;;;;;;19.60;62.90;;;;;;4984959;28;19944;-60
2022/06/02 10:21:54;;;;;;;;;;;19.60;62.90;;;;;;4985466;28;20053;-60
2022/06/02 10:24:56;;;;;;;;;;;19.70;62.90;;;;;;4988433;28;19917;-60
2022/06/02 10:27:30;;;;;;;;;;;19.70;62.70;;;;;;4931430;29;19915;-60
2022/06/02 10:30:12;;;;;;;;;;;19.80;62.80;;;;;;4930211;29;19925;-60
2022/06/02 10:32:44;;;;;;;;;;;19.80;61.90;;;;;;4931178;29;20349;-60
2022/06/02 10:35:27;;;;;;;;;;;19.70;61.90;;;;;;4934345;29;19923;-60
2022/06/02 10:38:10;;;;;;;;;;;19.80;62.90;;;;;;4931618;29;19925;-60
2022/06/02 10:40:38;;;;;;;;;;;19.80;63.00;;;;;;4931641;29;19953;-60
2022/06/02 10:43:15;;;;;;;;;;;19.90;62.10;;;;;;4946801;29;19921;-59
2022/06/02 10:45:44;;;;;;;;;;;19.90;62.80;;;;;;4953266;28;19915;-62
2022/06/02 10:48:25;;;;;;;;;;;20.00;62.60;;;;;;4951256;28;19925;-60
2022/06/02 10:51:00;;;;;;;;;;;20.00;61.60;;;;;;4951670;28;19922;-61
2022/06/02 10:53:34;;;;;;;;;;;20.00;61.50;;;;;;4953329;28;19943;-60
2022/06/02 10:56:08;;;;;;;;;;;20.00;61.30;;;;;;4950771;29;20389;-61
2022/06/02 10:58:54;;;;;;;;;;;20.10;61.70;;;;;;4951186;28;19949;-61
2022/06/02 11:01:25;;;;;;;;;;;20.20;61.70;;;;;;4998755;28;19913;-61
2022/06/02 11:04:11;;;;;;;;;;;20.30;61.40;;;;;;5032629;28;20407;-61
2022/06/02 11:06:55;;;;;;;;;;;20.50;60.90;;;;;;5032150;28;20397;-60
2022/06/02 11:09:32;;;;;;;;;;;20.60;61.70;;;;;;5049868;28;20016;-60
2022/06/02 11:12:03;;;;;;;;;;;20.70;61.20;;;;;;5050490;28;19974;-60
2022/06/02 11:14:50;;;;;;;;;;;20.90;60.50;;;;;;5048618;28;19916;-61
2022/06/02 11:17:34;;;;;;;;;;;21.00;60.70;;;;;;4971734;28;20527;-60
2022/06/02 11:19:59;;;;;;;;;;;21.20;60.30;;;;;;4972137;28;19925;-61
2022/06/02 11:22:25;;;;;;;;;;;21.20;59.90;;;;;;4969258;28;19914;-61
2022/06/02 11:25:06;;;;;;;;;;;21.10;59.60;;;;;;4968621;28;19922;-60
2022/06/02 11:27:50;;;;;;;;;;;21.10;59.30;;;;;;4968211;28;19914;-59
2022/06/02 11:30:34;;;;;;;;;;;21.10;59.40;;;;;;4969268;28;19922;-61
2022/06/02 11:33:13;;;;;;;;;;;21.00;59.40;;;;;;4967139;28;19972;-61
2022/06/02 11:35:44;;;;;;;;;;;21.10;59.80;;;;;;4973592;28;20586;-61
2022/06/02 11:38:16;;;;;;;;;;;21.10;59.30;;;;;;4969864;28;19918;-60
2022/06/02 11:40:56;;;;;;;;;;;21.20;58.70;;;;;;4968696;28;19945;-60
2022/06/02 11:43:29;;;;;;;;;;;21.20;58.70;;;;;;4968653;28;20004;-61
2022/06/02 11:46:14;;;;;;;;;;;21.20;58.90;;;;;;4967890;28;20361;-62
2022/06/02 11:48:52;;;;;;;;;;;21.30;58.70;;;;;;4967630;28;19922;-60
2022/06/02 11:51:20;;;;;;;;;;;21.40;58.50;;;;;;4967884;28;19933;-61
2022/06/02 11:54:01;;;;;;;;;;;21.50;57.60;;;;;;4986498;28;19913;-62
2022/06/02 11:56:45;;;;;;;;;;;21.50;56.80;;;;;;5047171;28;20374;-62
2022/06/02 11:59:33;;;;;;;;;;;21.50;56.90;;;;;;5049653;28;19924;-60
2022/06/02 12:02:10;;;;;;;;;;;21.60;57.40;;;;;;4987379;28;20000;-60
2022/06/02 12:04:47;;;;;;;;;;;21.70;56.90;;;;;;4986760;28;20301;-62
2022/06/02 12:07:44;;;;;;;;;;;21.80;57.10;;;;;;4987694;28;19914;-61
2022/06/02 12:10:32;;;;;;;;;;;21.80;56.10;;;;;;4986788;28;19937;-61
2022/06/02 12:13:01;;;;;;;;;;;21.90;57.10;;;;;;4934726;29;19977;-63
2022/06/02 12:15:38;;;;;;;;;;;22.00;57.60;;;;;;4933422;29;19926;-60
2022/06/02 12:18:26;;;;;;;;;;;22.00;56.80;;;;;;4930669;29;20328;-61
2022/06/02 12:20:54;;;;;;;;;;;22.10;56.10;;;;;;4931199;29;20068;-61
2022/06/02 12:23:29;;;;;;;;;;;22.20;55.80;;;;;;4936196;29;19950;-60
2022/06/02 12:26:04;;;;;;;;;;;22.20;55.40;;;;;;4930819;29;20322;-60
2022/06/02 12:28:40;;;;;;;;;;;22.20;55.00;;;;;;4929862;29;19919;-60
2022/06/02 12:31:24;;;;;;;;;;;22.20;55.70;;;;;;4933016;29;19922;-60
2022/06/02 12:34:08;;;;;;;;;;;22.30;56.20;;;;;;4929789;29;19971;-61
2022/06/02 12:36:33;;;;;;;;;;;22.50;54.60;;;;;;4933370;29;19915;-60
2022/06/02 12:39:17;;;;;;;;;;;22.50;53.80;;;;;;4949327;28;19925;-61
2022/06/02 12:41:46;;;;;;;;;;;22.50;54.60;;;;;;4971614;28;20508;-60
2022/06/02 12:44:30;;;;;;;;;;;22.30;54.10;;;;;;4969026;28;20344;-62
2022/06/02 12:46:58;;;;;;;;;;;22.30;54.50;;;;;;4973050;28;19914;-63
2022/06/02 12:49:33;;;;;;;;;;;22.30;55.10;;;;;;4990812;28;19913;-62
2022/06/02 12:51:59;;;;;;;;;;;22.40;55.20;;;;;;5048451;28;20043;-59
2022/06/02 12:54:43;;;;;;;;;;;22.40;54.50;;;;;;5048256;28;20369;-61
2022/06/02 12:57:25;;;;;;;;;;;22.40;54.70;;;;;;5050127;28;19920;-60
2022/06/02 12:59:56;;;;;;;;;;;22.40;54.20;;;;;;5045753;28;19924;-62
2022/06/02 13:02:29;;;;;;;;;;;22.30;53.40;;;;;;5047353;28;19958;-59
2022/06/02 13:05:24;;;;;;;;;;;22.30;53.40;;;;;;5048517;28;19917;-64
2022/06/02 13:08:08;;;;;;;;;;;22.30;53.60;;;;;;5026323;28;19951;-59
2022/06/02 13:10:54;;;;;;;;;;;22.40;53.80;;;;;;5021970;28;19979;-61
2022/06/02 13:13:22;;;;;;;;;;;22.50;54.20;;;;;;5046528;28;19913;-62
2022/06/02 13:15:57;;;;;;;;;;;22.50;53.50;;;;;;5047559;28;19917;-62
2022/06/02 13:18:40;;;;;;;;;;;22.50;53.50;;;;;;5047654;28;19917;-60
2022/06/02 13:21:15;;;;;;;;;;;22.60;53.80;;;;;;5047119;28;19913;-59
2022/06/02 13:23:46;;;;;;;;;;;22.60;53.60;;;;;;5047347;28;19974;-59
2022/06/02 13:26:16;;;;;;;;;;;22.60;53.60;;;;;;5047506;28;20035;-60
2022/06/02 13:29:05;;;;;;;;;;;22.50;53.50;;;;;;5047768;28;19916;-63
2022/06/02 13:31:49;;;;;;;;;;;22.50;53.80;;;;;;5036453;28;20458;-61
2022/06/02 13:34:33;;;;;;;;;;;22.50;52.90;;;;;;5048235;28;20386;-61
2022/06/02 13:37:09;;;;;;;;;;;22.40;52.60;;;;;;5046183;28;19917;-60
2022/06/02 13:39:46;;;;;;;;;;;22.40;52.90;;;;;;5047202;28;19936;-60
2022/06/02 13:42:29;;;;;;;;;;;22.30;52.30;;;;;;5049601;28;19913;-61
2022/06/02 13:45:22;;;;;;;;;;;22.30;52.90;;;;;;5047384;28;19920;-59
2022/06/02 13:48:06;;;;;;;;;;;22.30;53.80;;;;;;5046979;28;20016;-62
2022/06/02 13:50:32;;;;;;;;;;;22.30;53.10;;;;;;5046051;28;19924;-61
2022/06/02 13:53:09;;;;;;;;;;;22.30;53.30;;;;;;5047548;28;19967;-60
2022/06/02 13:58:56;;;;;;;;;;;22.40;52.60;;;;;;5049765;28;20104;-60
2022/06/02 14:01:31;;;;;;;;;;;22.40;52.50;;;;;;5030022;28;20116;-59
2022/06/02 14:04:08;;;;;;;;;;;22.40;51.50;;;;;;5048630;28;20011;-58
2022/06/02 14:06:40;;;;;;;;;;;22.30;51.40;;;;;;5050654;28;19912;-60
2022/06/02 14:09:27;;;;;;;;;;;22.20;50.40;;;;;;5049405;28;19959;-61
2022/06/02 14:11:55;;;;;;;;;;;22.20;51.80;;;;;;5047916;28;19928;-58
2022/06/02 14:14:23;;;;;;;;;;;22.30;51.30;;;;;;5050904;28;19917;-60
2022/06/02 14:17:08;;;;;;;;;;;22.40;51.60;;;;;;5052877;28;19912;-62
2022/06/02 14:19:52;;;;;;;;;;;22.40;51.50;;;;;;5048969;28;19917;-60
2022/06/02 14:22:30;;;;;;;;;;;22.50;51.80;;;;;;5049349;28;19921;-61
2022/06/02 14:24:55;;;;;;;;;;;22.50;51.50;;;;;;5050027;28;19919;-61
2022/06/02 14:27:33;;;;;;;;;;;22.60;51.40;;;;;;5050429;28;19999;-61
2022/06/02 14:29:58;;;;;;;;;;;22.60;51.60;;;;;;5050394;28;19917;-61
2022/06/02 14:32:42;;;;;;;;;;;22.60;51.80;;;;;;5053537;28;19966;-59
2022/06/02 14:35:27;;;;;;;;;;;22.60;50.20;;;;;;5052782;28;19987;-60
2022/06/02 14:38:11;;;;;;;;;;;22.60;50.90;;;;;;5050996;28;20371;-60
2022/06/02 14:40:41;;;;;;;;;;;22.60;51.30;;;;;;5051399;28;19972;-60
2022/06/02 14:43:22;;;;;;;;;;;22.70;50.50;;;;;;5050845;28;19912;-62
2022/06/02 14:45:50;;;;;;;;;;;22.70;50.20;;;;;;5050944;28;20358;-61
2022/06/02 14:48:34;;;;;;;;;;;22.70;50.00;;;;;;5050199;28;19924;-59
2022/06/02 14:51:13;;;;;;;;;;;22.70;50.30;;;;;;5049351;28;19927;-60
2022/06/02 14:53:45;;;;;;;;;;;22.70;50.50;;;;;;5049780;28;20558;-60
2022/06/02 14:56:23;;;;;;;;;;;22.70;50.00;;;;;;5050927;28;19999;-60
2022/06/02 14:58:57;;;;;;;;;;;22.80;50.70;;;;;;5054057;28;20406;-59
2022/06/02 15:01:30;;;;;;;;;;;22.90;50.70;;;;;;5048934;28;19928;-61
2022/06/02 15:04:15;;;;;;;;;;;23.00;50.30;;;;;;5047187;28;19916;-62
2022/06/02 15:06:48;;;;;;;;;;;23.10;50.20;;;;;;5049234;28;19921;-60
2022/06/02 15:09:32;;;;;;;;;;;23.10;50.50;;;;;;5049277;28;19913;-60
2022/06/02 15:12:10;;;;;;;;;;;23.20;50.10;;;;;;5047366;28;19975;-62
2022/06/02 15:14:55;;;;;;;;;;;23.20;49.30;;;;;;5049183;28;20352;-61
2022/06/02 15:17:29;;;;;;;;;;;23.30;49.30;;;;;;5050946;28;19974;-59
2022/06/02 15:20:01;;;;;;;;;;;23.40;49.30;;;;;;5050524;28;19920;-58
2022/06/02 15:22:39;;;;;;;;;;;23.40;48.70;;;;;;5049436;28;20307;-60
2022/06/02 15:25:04;;;;;;;;;;;23.50;48.60;;;;;;5049437;28;19970;-59
2022/06/02 15:27:32;;;;;;;;;;;23.70;48.60;;;;;;5049591;28;19916;-58
2022/06/02 15:29:58;;;;;;;;;;;23.70;47.60;;;;;;5052591;28;19923;-60